createdAt,value
2023-03-24T00:00:32.561Z,12.95
2023-03-24T00:02:12.420Z,12.95
2023-03-24T00:03:52.179Z,12.95
2023-03-24T00:05:31.859Z,12.95
2023-03-24T00:07:11.710Z,12.94
2023-03-24T00:08:51.435Z,12.94
2023-03-24T00:10:31.229Z,12.94
2023-03-24T00:12:11.104Z,12.94
2023-03-24T00:13:50.873Z,12.94
2023-03-24T00:15:30.544Z,12.95
2023-03-24T00:17:10.355Z,12.95
2023-03-24T00:18:50.112Z,12.95
2023-03-24T00:20:29.862Z,12.93
2023-03-24T00:22:09.528Z,12.95
2023-03-24T00:23:49.255Z,12.93
2023-03-24T00:25:29.028Z,12.93
2023-03-24T00:27:08.920Z,12.95
2023-03-24T00:28:48.590Z,12.94
2023-03-24T00:30:28.358Z,12.94
2023-03-24T00:32:08.071Z,12.94
2023-03-24T00:33:47.924Z,12.94
2023-03-24T00:35:27.710Z,12.93
2023-03-24T00:37:07.490Z,12.93
2023-03-24T00:38:47.269Z,12.93
2023-03-24T00:40:26.894Z,12.93
2023-03-24T00:42:06.881Z,12.93
2023-03-24T00:43:46.576Z,12.93
2023-03-24T00:45:26.235Z,12.93
2023-03-24T00:47:05.964Z,12.94
2023-03-24T00:48:45.827Z,12.92
2023-03-24T00:50:25.559Z,12.92
2023-03-24T00:52:05.392Z,12.93
2023-03-24T00:53:45.054Z,12.93
2023-03-24T00:55:24.944Z,12.93
2023-03-24T00:57:04.569Z,12.93
2023-03-24T00:58:44.464Z,12.93
2023-03-24T01:00:24.172Z,12.91
2023-03-24T01:02:03.830Z,12.93
2023-03-24T01:03:43.740Z,12.92
2023-03-24T01:05:23.377Z,12.92
2023-03-24T01:07:03.195Z,12.93
2023-03-24T01:08:43.035Z,12.92
2023-03-24T01:10:22.661Z,12.92
2023-03-24T01:12:02.402Z,12.92
2023-03-24T01:13:42.235Z,12.92
2023-03-24T01:15:21.942Z,12.92
2023-03-24T01:17:01.713Z,12.92
2023-03-24T01:18:41.616Z,12.91
2023-03-24T01:20:21.227Z,12.9
2023-03-24T01:22:01.143Z,12.91
2023-03-24T01:23:40.810Z,12.9
2023-03-24T01:25:20.529Z,12.9
2023-03-24T01:27:00.485Z,12.9
2023-03-24T01:28:40.060Z,12.9
2023-03-24T01:30:19.788Z,12.9
2023-03-24T01:31:59.668Z,12.9
2023-03-24T01:33:39.373Z,12.9
2023-03-24T01:35:19.164Z,12.9
2023-03-24T01:36:58.870Z,12.9
2023-03-24T01:38:38.851Z,12.9
2023-03-24T01:40:18.519Z,12.9
2023-03-24T01:41:58.253Z,12.9
2023-03-24T01:43:38.017Z,12.9
2023-03-24T01:45:17.710Z,12.89
2023-03-24T01:46:57.503Z,12.89
2023-03-24T01:48:37.398Z,12.89
2023-03-24T01:50:17.024Z,12.9
2023-03-24T01:51:56.870Z,12.9
2023-03-24T01:53:36.663Z,12.88
2023-03-24T01:55:16.265Z,12.88
2023-03-24T01:56:56.122Z,12.89
2023-03-24T01:58:35.949Z,12.89
2023-03-24T02:00:15.695Z,12.89
2023-03-24T02:01:55.493Z,12.89
2023-03-24T02:03:35.101Z,12.89
2023-03-24T02:05:14.918Z,12.89
2023-03-24T02:06:54.625Z,12.89
2023-03-24T02:08:34.376Z,12.89
2023-03-24T02:10:14.232Z,12.89
2023-03-24T02:11:53.909Z,12.89
2023-03-24T02:13:33.739Z,12.89
2023-03-24T02:15:13.578Z,12.87
2023-03-24T02:16:53.309Z,12.88
2023-03-24T02:18:33.082Z,12.88
2023-03-24T02:20:12.733Z,12.88
2023-03-24T02:21:52.496Z,12.88
2023-03-24T02:23:32.381Z,12.88
2023-03-24T02:25:12.082Z,12.88
2023-03-24T02:26:51.809Z,12.88
2023-03-24T02:28:31.560Z,12.88
2023-03-24T02:30:11.316Z,12.88
2023-03-24T02:31:51.068Z,12.88
2023-03-24T02:33:30.868Z,12.88
2023-03-24T02:35:10.695Z,12.88
2023-03-24T02:36:50.491Z,12.86
2023-03-24T02:38:30.195Z,12.88
2023-03-24T02:40:09.955Z,12.86
2023-03-24T02:41:49.756Z,12.86
2023-03-24T02:43:29.428Z,12.86
2023-03-24T02:45:09.333Z,12.87
2023-03-24T02:46:49.045Z,12.87
2023-03-24T02:48:28.739Z,12.87
2023-03-24T02:50:08.586Z,12.85
2023-03-24T02:51:48.241Z,12.87
2023-03-24T02:53:28.111Z,12.86
2023-03-24T02:55:07.748Z,12.86
2023-03-24T02:56:47.745Z,12.86
2023-03-24T02:58:27.310Z,12.85
2023-03-24T03:00:07.095Z,12.86
2023-03-24T03:01:46.820Z,12.86
2023-03-24T03:03:26.724Z,12.86
2023-03-24T03:05:06.496Z,12.86
2023-03-24T03:06:46.262Z,12.86
2023-03-24T03:08:25.886Z,12.86
2023-03-24T03:10:05.650Z,12.86
2023-03-24T03:11:45.567Z,12.86
2023-03-24T03:13:25.169Z,12.86
2023-03-24T03:15:04.927Z,12.84
2023-03-24T03:16:44.864Z,12.84
2023-03-24T03:18:24.570Z,12.84
2023-03-24T03:20:04.296Z,12.84
2023-03-24T03:21:44.010Z,12.84
2023-03-24T03:23:23.753Z,12.85
2023-03-24T03:25:03.576Z,12.85
2023-03-24T03:26:43.325Z,12.85
2023-03-24T03:28:23.076Z,12.85
2023-03-24T03:30:02.827Z,12.83
2023-03-24T03:31:42.585Z,12.85
2023-03-24T03:33:22.455Z,12.85
2023-03-24T03:35:02.128Z,12.84
2023-03-24T03:36:41.921Z,12.84
2023-03-24T03:38:21.791Z,12.84
2023-03-24T03:40:01.387Z,12.84
2023-03-24T03:41:41.296Z,12.84
2023-03-24T03:43:21.099Z,12.84
2023-03-24T03:45:00.809Z,12.84
2023-03-24T03:46:40.575Z,12.84
2023-03-24T03:48:20.345Z,12.84
2023-03-24T03:50:00.085Z,12.84
2023-03-24T03:51:39.938Z,12.84
2023-03-24T03:53:19.514Z,12.84
2023-03-24T03:54:59.317Z,12.84
2023-03-24T03:56:39.189Z,12.84
2023-03-24T03:58:18.803Z,12.84
2023-03-24T03:59:58.679Z,12.84
2023-03-24T04:01:38.335Z,12.84
2023-03-24T04:03:18.225Z,12.82
2023-03-24T04:04:57.865Z,12.84
2023-03-24T04:06:37.655Z,12.82
2023-03-24T04:08:17.378Z,12.84
2023-03-24T04:09:57.149Z,12.83
2023-03-24T04:11:37.022Z,12.83
2023-03-24T04:13:16.680Z,12.83
2023-03-24T04:14:56.438Z,12.83
2023-03-24T04:16:36.209Z,12.83
2023-03-24T04:18:16.015Z,12.83
2023-03-24T04:19:55.724Z,12.83
2023-03-24T04:21:35.517Z,12.83
2023-03-24T04:23:15.272Z,12.82
2023-03-24T04:24:55.042Z,12.82
2023-03-24T04:26:34.783Z,12.83
2023-03-24T04:28:14.614Z,12.83
2023-03-24T04:29:54.309Z,12.83
2023-03-24T04:31:34.077Z,12.83
2023-03-24T04:33:13.833Z,12.83
2023-03-24T04:34:53.668Z,12.84
2023-03-24T04:36:33.368Z,12.81
2023-03-24T04:38:13.128Z,12.83
2023-03-24T04:39:52.891Z,12.83
2023-03-24T04:41:32.720Z,12.83
2023-03-24T04:43:12.416Z,12.83
2023-03-24T04:44:52.192Z,12.82
2023-03-24T04:46:31.940Z,12.83
2023-03-24T04:48:11.824Z,12.83
2023-03-24T04:49:51.538Z,12.81
2023-03-24T04:51:31.295Z,12.83
2023-03-24T04:53:10.996Z,12.83
2023-03-24T04:54:50.801Z,12.81
2023-03-24T04:56:30.721Z,12.83
2023-03-24T04:58:10.298Z,12.81
2023-03-24T04:59:50.131Z,12.83
2023-03-24T05:01:29.829Z,12.83
2023-03-24T05:03:09.592Z,12.83
2023-03-24T05:04:49.354Z,12.83
2023-03-24T05:06:29.117Z,12.84
2023-03-24T05:08:08.931Z,12.84
2023-03-24T05:09:48.709Z,12.84
2023-03-24T05:11:28.403Z,12.84
2023-03-24T05:13:08.211Z,12.84
2023-03-24T05:14:47.941Z,12.84
2023-03-24T05:16:27.698Z,12.84
2023-03-24T05:18:07.494Z,12.84
2023-03-24T05:19:47.229Z,12.84
2023-03-24T05:21:26.997Z,12.84
2023-03-24T05:23:06.768Z,12.85
2023-03-24T05:24:46.512Z,12.85
2023-03-24T05:26:26.371Z,12.85
2023-03-24T05:28:06.033Z,12.87
2023-03-24T05:29:45.802Z,12.87
2023-03-24T05:31:25.575Z,12.9
2023-03-24T05:33:05.333Z,12.95
2023-03-24T05:34:45.086Z,12.95
2023-03-24T05:36:24.862Z,12.95
2023-03-24T05:38:04.685Z,12.98
2023-03-24T05:39:44.414Z,12.97
2023-03-24T05:41:24.173Z,12.96
2023-03-24T05:43:03.920Z,12.97
2023-03-24T05:44:43.838Z,12.95
2023-03-24T05:46:23.450Z,12.96
2023-03-24T05:48:03.245Z,12.96
2023-03-24T05:49:42.987Z,12.94
2023-03-24T05:51:22.741Z,12.96
2023-03-24T05:53:02.505Z,12.96
2023-03-24T05:54:42.269Z,12.94
2023-03-24T05:56:22.103Z,12.91
2023-03-24T05:58:01.771Z,12.88
2023-03-24T05:59:41.566Z,12.9
2023-03-24T06:01:21.318Z,12.89
2023-03-24T06:03:01.095Z,12.87
2023-03-24T06:04:40.859Z,12.88
2023-03-24T06:06:20.635Z,12.87
2023-03-24T06:08:00.386Z,12.86
2023-03-24T06:09:40.148Z,12.87
2023-03-24T06:11:19.893Z,12.88
2023-03-24T06:12:59.677Z,12.89
2023-03-24T06:14:39.428Z,12.92
2023-03-24T06:16:19.193Z,12.92
2023-03-24T06:17:58.971Z,12.89
2023-03-24T06:19:38.715Z,12.91
2023-03-24T06:21:18.488Z,12.91
2023-03-24T06:22:58.237Z,12.91
2023-03-24T06:24:38.019Z,12.9
2023-03-24T06:26:17.798Z,12.92
2023-03-24T06:27:57.546Z,12.9
2023-03-24T06:29:37.309Z,12.88
2023-03-24T06:31:17.069Z,12.96
2023-03-24T06:32:56.824Z,13.04
2023-03-24T06:34:36.601Z,13.11
2023-03-24T06:36:16.371Z,13.19
2023-03-24T06:37:56.118Z,13.26
2023-03-24T06:39:35.894Z,13.31
2023-03-24T06:41:15.646Z,13.34
2023-03-24T06:42:55.411Z,13.39
2023-03-24T06:44:35.247Z,13.41
2023-03-24T06:46:14.945Z,13.47
2023-03-24T06:47:54.702Z,13.53
2023-03-24T06:49:34.470Z,13.6
2023-03-24T06:51:14.239Z,13.63
2023-03-24T06:52:54.013Z,13.69
2023-03-24T06:54:33.768Z,13.78
2023-03-24T06:56:13.552Z,13.84
2023-03-24T06:57:53.399Z,13.9
2023-03-24T06:59:33.074Z,13.9
2023-03-24T07:01:12.962Z,13.89
2023-03-24T07:02:52.593Z,13.88
2023-03-24T07:04:32.389Z,13.88
2023-03-24T07:06:12.136Z,13.88
2023-03-24T07:07:51.881Z,13.91
2023-03-24T07:09:31.656Z,13.93
2023-03-24T07:11:11.466Z,14.06
2023-03-24T07:12:51.156Z,14.03
2023-03-24T07:14:30.953Z,14.06
2023-03-24T07:16:10.814Z,14.11
2023-03-24T07:17:50.509Z,14.22
2023-03-24T07:19:30.355Z,14.19
2023-03-24T07:21:10.063Z,14.19
2023-03-24T07:22:49.803Z,14.16
2023-03-24T07:24:29.536Z,14.16
2023-03-24T07:26:09.283Z,14.18
2023-03-24T07:27:49.044Z,14.23
2023-03-24T07:29:28.822Z,14.35
2023-03-24T07:31:08.572Z,14.41
2023-03-24T07:32:48.358Z,14.43
2023-03-24T07:34:28.265Z,14.43
2023-03-24T07:36:07.966Z,14.49
2023-03-24T07:37:47.685Z,14.27
2023-03-24T07:39:27.428Z,14.7
2023-03-24T07:41:07.236Z,14.64
2023-03-24T07:42:47.048Z,14.58
2023-03-24T07:44:26.709Z,14.58
2023-03-24T07:46:06.537Z,14.56
2023-03-24T07:47:46.258Z,14.55
2023-03-24T07:49:26.160Z,14.61
2023-03-24T07:51:05.764Z,14.71
2023-03-24T07:52:45.568Z,14.67
2023-03-24T07:54:25.303Z,14.68
2023-03-24T07:56:05.230Z,14.66
2023-03-24T07:57:45.008Z,14.64
2023-03-24T07:59:24.742Z,14.54
2023-03-24T08:01:04.496Z,14.58
2023-03-24T08:02:44.285Z,14.67
2023-03-24T08:04:23.894Z,14.65
2023-03-24T08:07:43.447Z,14.59
2023-03-24T08:09:23.201Z,14.58
2023-03-24T08:11:03.103Z,14.7
2023-03-24T08:12:42.731Z,14.61
2023-03-24T08:14:22.499Z,14.56
2023-03-24T08:16:02.303Z,14.55
2023-03-24T08:17:42.031Z,14.55
2023-03-24T08:19:21.828Z,14.43
2023-03-24T08:21:01.535Z,14.18
2023-03-24T08:22:41.298Z,14.01
2023-03-24T08:24:21.081Z,13.93
2023-03-24T08:26:00.909Z,13.94
2023-03-24T08:27:40.586Z,13.9
2023-03-24T08:29:20.364Z,13.9
2023-03-24T08:31:00.122Z,13.89
2023-03-24T08:32:39.891Z,13.88
2023-03-24T08:34:19.650Z,13.85
2023-03-24T08:35:59.499Z,13.83
2023-03-24T08:37:39.311Z,13.79
2023-03-24T08:39:18.939Z,13.8
2023-03-24T08:40:58.702Z,13.79
2023-03-24T08:42:38.483Z,13.81
2023-03-24T08:44:18.232Z,13.82
2023-03-24T08:45:57.995Z,13.87
2023-03-24T08:47:37.767Z,13.88
2023-03-24T08:49:17.555Z,13.96
2023-03-24T08:50:57.270Z,13.98
2023-03-24T08:52:37.059Z,13.94
2023-03-24T08:54:16.805Z,13.89
2023-03-24T08:55:56.605Z,13.8
2023-03-24T08:57:36.336Z,13.8
2023-03-24T08:59:16.138Z,13.79
2023-03-24T09:00:55.872Z,13.82
2023-03-24T09:02:35.632Z,13.87
2023-03-24T09:04:15.384Z,13.95
2023-03-24T09:05:55.161Z,14.2
2023-03-24T09:07:34.919Z,14.35
2023-03-24T09:09:14.686Z,14.6
2023-03-24T09:10:54.462Z,14.88
2023-03-24T09:12:34.228Z,14.57
2023-03-24T09:14:13.988Z,14.67
2023-03-24T09:15:53.756Z,14.62
2023-03-24T09:17:33.533Z,14.56
2023-03-24T09:19:13.286Z,14.6
2023-03-24T09:20:53.030Z,14.59
2023-03-24T09:22:32.788Z,14.57
2023-03-24T09:24:12.582Z,14.56
2023-03-24T09:25:52.418Z,14.53
2023-03-24T09:27:32.083Z,14.55
2023-03-24T09:29:11.923Z,14.7
2023-03-24T09:30:51.712Z,14.71
2023-03-24T09:32:31.363Z,14.58
2023-03-24T09:34:11.152Z,14.6
2023-03-24T09:35:50.911Z,14.57
2023-03-24T09:37:30.709Z,14.59
2023-03-24T09:39:10.429Z,14.56
2023-03-24T09:40:50.196Z,14.57
2023-03-24T09:42:29.977Z,14.61
2023-03-24T09:44:09.754Z,14.66
2023-03-24T09:45:49.675Z,14.68
2023-03-24T09:47:29.267Z,14.69
2023-03-24T09:49:09.017Z,14.62
2023-03-24T09:50:48.937Z,14.67
2023-03-24T09:52:28.565Z,14.58
2023-03-24T09:54:08.401Z,14.64
2023-03-24T09:55:48.245Z,14.64
2023-03-24T09:57:27.990Z,14.53
2023-03-24T09:59:07.593Z,14.66
2023-03-24T10:00:47.359Z,14.57
2023-03-24T10:02:27.133Z,14.66
2023-03-24T10:04:07.001Z,14.61
2023-03-24T10:05:46.670Z,14.59
2023-03-24T10:07:26.550Z,14.62
2023-03-24T10:09:06.188Z,14.63
2023-03-24T10:10:46.047Z,14.55
2023-03-24T10:12:25.778Z,14.68
2023-03-24T10:14:05.627Z,14.72
2023-03-24T10:15:45.301Z,14.7
2023-03-24T10:17:25.104Z,14.6
2023-03-24T10:19:04.765Z,14.56
2023-03-24T10:20:44.605Z,14.58
2023-03-24T10:22:24.304Z,14.55
2023-03-24T10:24:04.111Z,14.57
2023-03-24T10:25:43.880Z,14.69
2023-03-24T10:27:23.664Z,14.56
2023-03-24T10:29:03.471Z,14.67
2023-03-24T10:30:43.139Z,14.55
2023-03-24T10:32:22.893Z,14.62
2023-03-24T10:34:02.635Z,14.68
2023-03-24T10:35:42.582Z,14.64
2023-03-24T10:37:22.385Z,14.69
2023-03-24T10:39:02.104Z,14.57
2023-03-24T10:40:41.736Z,14.57
2023-03-24T10:42:21.545Z,14.57
2023-03-24T10:44:01.306Z,14.54
2023-03-24T10:45:41.160Z,14.54
2023-03-24T10:47:20.857Z,14.54
2023-03-24T10:49:00.588Z,14.55
2023-03-24T10:50:40.349Z,14.6
2023-03-24T10:52:20.068Z,14.69
2023-03-24T10:53:59.808Z,14.68
2023-03-24T10:55:39.702Z,14.61
2023-03-24T10:57:19.404Z,14.62
2023-03-24T10:58:59.152Z,14.56
2023-03-24T11:00:38.958Z,14.54
2023-03-24T11:02:18.640Z,14.57
2023-03-24T11:03:58.394Z,14.55
2023-03-24T11:05:38.201Z,14.63
2023-03-24T11:07:17.991Z,14.64
2023-03-24T11:08:57.706Z,14.61
2023-03-24T11:10:37.527Z,14.05
2023-03-24T11:12:17.278Z,14.01
2023-03-24T11:13:56.974Z,14
2023-03-24T11:15:36.777Z,14.08
2023-03-24T11:17:16.510Z,13.99
2023-03-24T11:18:56.303Z,14.06
2023-03-24T11:20:36.090Z,13.93
2023-03-24T11:22:15.812Z,13.91
2023-03-24T11:23:55.589Z,14
2023-03-24T11:25:35.377Z,13.92
2023-03-24T11:27:15.118Z,14.01
2023-03-24T11:28:54.873Z,14.01
2023-03-24T11:30:34.624Z,13.96
2023-03-24T11:32:14.390Z,13.95
2023-03-24T11:33:54.140Z,14.04
2023-03-24T11:35:33.912Z,14.06
2023-03-24T11:37:13.672Z,14
2023-03-24T11:38:53.435Z,13.92
2023-03-24T11:40:33.222Z,13.97
2023-03-24T11:42:12.956Z,13.99
2023-03-24T11:43:52.730Z,14.08
2023-03-24T11:45:32.503Z,13.94
2023-03-24T11:47:12.301Z,13.95
2023-03-24T11:48:52.029Z,13.96
2023-03-24T11:50:31.802Z,13.92
2023-03-24T11:52:11.551Z,13.94
2023-03-24T11:53:51.391Z,14.06
2023-03-24T11:55:31.098Z,14.01
2023-03-24T11:57:10.843Z,14.03
2023-03-24T11:58:50.605Z,13.93
2023-03-24T12:00:30.377Z,13.92
2023-03-24T12:02:10.138Z,13.96
2023-03-24T12:03:49.907Z,13.97
2023-03-24T12:05:29.670Z,13.99
2023-03-24T12:07:09.423Z,13.96
2023-03-24T12:08:49.215Z,14.01
2023-03-24T12:10:28.985Z,13.97
2023-03-24T12:12:08.742Z,13.99
2023-03-24T12:13:48.487Z,14.02
2023-03-24T12:15:28.286Z,14
2023-03-24T12:17:08.002Z,13.98
2023-03-24T12:18:47.775Z,13.9
2023-03-24T12:20:27.547Z,14.05
2023-03-24T12:22:07.312Z,14.02
2023-03-24T12:23:47.081Z,13.92
2023-03-24T12:27:06.602Z,13.99
2023-03-24T12:28:46.364Z,13.98
2023-03-24T12:30:26.129Z,14.02
2023-03-24T12:32:05.984Z,13.95
2023-03-24T12:33:45.651Z,14.04
2023-03-24T12:35:25.414Z,13.99
2023-03-24T12:37:05.204Z,13.93
2023-03-24T12:38:45.020Z,13.97
2023-03-24T12:40:24.722Z,13.99
2023-03-24T12:42:04.467Z,14.03
2023-03-24T12:43:44.226Z,13.98
2023-03-24T12:45:24.053Z,13.94
2023-03-24T12:47:03.809Z,14.05
2023-03-24T12:48:43.530Z,13.99
2023-03-24T12:50:23.320Z,13.99
2023-03-24T12:52:03.052Z,13.94
2023-03-24T12:53:42.844Z,13.94
2023-03-24T12:55:22.597Z,13.95
2023-03-24T12:57:02.403Z,13.9
2023-03-24T12:58:42.114Z,14.05
2023-03-24T13:00:21.978Z,13.98
2023-03-24T13:02:01.650Z,14
2023-03-24T13:03:41.415Z,13.94
2023-03-24T13:05:21.173Z,13.94
2023-03-24T13:07:00.926Z,13.95
2023-03-24T13:08:40.679Z,14.06
2023-03-24T13:10:20.458Z,13.93
2023-03-24T13:12:00.210Z,14.05
2023-03-24T13:13:40.021Z,14.04
2023-03-24T13:15:19.762Z,13.97
2023-03-24T13:16:59.531Z,14.03
2023-03-24T13:18:39.285Z,14.02
2023-03-24T13:20:19.042Z,14.05
2023-03-24T13:21:58.811Z,13.99
2023-03-24T13:23:38.588Z,13.95
2023-03-24T13:25:18.327Z,14
2023-03-24T13:26:58.117Z,13.96
2023-03-24T13:28:37.870Z,13.94
2023-03-24T13:30:17.633Z,14.05
2023-03-24T13:31:57.383Z,14.06
2023-03-24T13:33:37.201Z,14.07
2023-03-24T13:35:16.944Z,13.9
2023-03-24T13:36:56.837Z,13.94
2023-03-24T13:38:36.482Z,14.03
2023-03-24T13:40:16.308Z,14.05
2023-03-24T13:41:56.147Z,13.92
2023-03-24T13:43:35.731Z,14.02
2023-03-24T13:45:15.708Z,13.95
2023-03-24T13:46:55.352Z,14.06
2023-03-24T13:48:35.129Z,14
2023-03-24T13:50:14.802Z,13.91
2023-03-24T13:51:54.561Z,14.08
2023-03-24T13:53:34.406Z,13.91
2023-03-24T13:55:14.108Z,14.07
2023-03-24T13:56:54.030Z,14.02
2023-03-24T13:58:33.617Z,14.06
2023-03-24T14:00:13.389Z,13.91
2023-03-24T14:01:53.143Z,13.92
2023-03-24T14:03:32.917Z,13.9
2023-03-24T14:05:12.712Z,13.92
2023-03-24T14:06:52.498Z,13.98
2023-03-24T14:08:32.300Z,14.03
2023-03-24T14:10:12.024Z,13.98
2023-03-24T14:11:51.748Z,14.05
2023-03-24T14:13:31.508Z,13.92
2023-03-24T14:15:11.256Z,13.96
2023-03-24T14:16:51.109Z,13.94
2023-03-24T14:18:30.815Z,13.94
2023-03-24T14:20:10.573Z,13.92
2023-03-24T14:21:50.313Z,13.96
2023-03-24T14:23:30.063Z,13.98
2023-03-24T14:25:09.850Z,14
2023-03-24T14:26:49.600Z,13.96
2023-03-24T14:28:29.359Z,13.89
2023-03-24T14:30:09.158Z,13.91
2023-03-24T14:31:48.907Z,14.05
2023-03-24T14:33:28.659Z,13.96
2023-03-24T14:35:08.430Z,13.97
2023-03-24T14:36:48.178Z,13.91
2023-03-24T14:38:27.979Z,13.96
2023-03-24T14:40:07.739Z,14.04
2023-03-24T14:41:47.490Z,13.92
2023-03-24T14:43:27.247Z,14.06
2023-03-24T14:45:07.001Z,14.01
2023-03-24T14:46:46.756Z,13.98
2023-03-24T14:48:26.523Z,14.04
2023-03-24T14:50:06.328Z,14.04
2023-03-24T14:51:46.055Z,13.9
2023-03-24T14:53:25.840Z,13.92
2023-03-24T14:55:05.589Z,14.02
2023-03-24T14:56:45.335Z,14.02
2023-03-24T14:58:25.122Z,13.95
2023-03-24T15:00:04.874Z,14.06
2023-03-24T15:01:44.652Z,13.94
2023-03-24T15:03:24.405Z,14.05
2023-03-24T15:05:04.161Z,13.92
2023-03-24T15:06:43.924Z,14.07
2023-03-24T15:08:23.719Z,13.9
2023-03-24T15:10:03.471Z,13.91
2023-03-24T15:11:43.245Z,13.94
2023-03-24T15:13:22.987Z,14.02
2023-03-24T15:15:02.744Z,14.06
2023-03-24T15:16:42.511Z,14.03
2023-03-24T15:18:22.279Z,13.95
2023-03-24T15:20:02.044Z,13.95
2023-03-24T15:21:41.949Z,14.01
2023-03-24T15:23:21.748Z,13.97
2023-03-24T15:25:01.482Z,13.98
2023-03-24T15:26:41.106Z,13.95
2023-03-24T15:28:20.892Z,14.01
2023-03-24T15:30:00.807Z,14.04
2023-03-24T15:31:40.561Z,13.97
2023-03-24T15:33:20.323Z,13.98
2023-03-24T15:35:00.009Z,14.07
2023-03-24T15:36:39.697Z,13.89
2023-03-24T15:38:19.620Z,13.98
2023-03-24T15:39:59.206Z,13.98
2023-03-24T15:41:38.977Z,13.98
2023-03-24T15:43:18.806Z,14.02
2023-03-24T15:44:58.530Z,14.05
2023-03-24T15:46:38.396Z,14.04
2023-03-24T15:48:18.051Z,13.93
2023-03-24T15:49:57.796Z,14.02
2023-03-24T15:51:37.558Z,13.89
2023-03-24T15:53:17.359Z,13.97
2023-03-24T15:54:57.102Z,13.89
2023-03-24T15:56:36.987Z,13.97
2023-03-24T15:58:16.614Z,14.02
2023-03-24T15:59:56.376Z,13.9
2023-03-24T16:01:36.234Z,13.94
2023-03-24T16:03:15.912Z,14.03
2023-03-24T16:04:55.754Z,14.03
2023-03-24T16:06:35.473Z,14.01
2023-03-24T16:08:15.201Z,14.03
2023-03-24T16:09:55.060Z,14
2023-03-24T16:11:34.765Z,13.93
2023-03-24T16:13:14.528Z,14.03
2023-03-24T16:14:54.372Z,13.94
2023-03-24T16:16:34.016Z,13.99
2023-03-24T16:18:13.792Z,14.05
2023-03-24T16:19:53.691Z,13.91
2023-03-24T16:21:33.317Z,13.95
2023-03-24T16:23:13.074Z,14.04
2023-03-24T16:24:52.889Z,14.03
2023-03-24T16:26:32.643Z,14.09
2023-03-24T16:28:12.352Z,14.02
2023-03-24T16:29:52.141Z,13.96
2023-03-24T16:31:31.926Z,14.06
2023-03-24T16:33:11.661Z,13.97
2023-03-24T16:34:51.424Z,13.95
2023-03-24T16:36:31.194Z,14.09
2023-03-24T16:38:10.974Z,13.92
2023-03-24T16:39:50.841Z,14.04
2023-03-24T16:41:30.535Z,14.05
2023-03-24T16:43:10.246Z,14.02
2023-03-24T16:44:50.038Z,13.97
2023-03-24T16:46:29.885Z,14.06
2023-03-24T16:48:09.615Z,13.95
2023-03-24T16:49:49.381Z,14.06
2023-03-24T16:51:29.071Z,14.05
2023-03-24T16:53:08.829Z,14.09
2023-03-24T16:54:48.639Z,13.99
2023-03-24T16:56:28.357Z,13.97
2023-03-24T16:58:08.192Z,13.98
2023-03-24T16:59:47.896Z,13.98
2023-03-24T17:01:27.656Z,13.95
2023-03-24T17:03:07.466Z,14.07
2023-03-24T17:04:47.345Z,14
2023-03-24T17:06:26.949Z,13.92
2023-03-24T17:08:06.696Z,13.88
2023-03-24T17:09:46.565Z,13.41
2023-03-24T17:11:26.229Z,13.35
2023-03-24T17:13:06.008Z,13.32
2023-03-24T17:14:45.842Z,13.29
2023-03-24T17:16:25.516Z,13.27
2023-03-24T17:18:05.289Z,13.25
2023-03-24T17:19:45.057Z,13.24
2023-03-24T17:21:24.810Z,13.22
2023-03-24T17:23:04.630Z,13.19
2023-03-24T17:24:44.335Z,13.2
2023-03-24T17:26:24.129Z,13.19
2023-03-24T17:28:03.870Z,13.19
2023-03-24T17:29:43.627Z,13.16
2023-03-24T17:31:23.400Z,13.16
2023-03-24T17:33:03.174Z,13.16
2023-03-24T17:34:42.913Z,13.15
2023-03-24T17:36:22.695Z,13.15
2023-03-24T17:38:02.577Z,13.14
2023-03-24T17:39:42.262Z,13.14
2023-03-24T17:41:22.042Z,13.13
2023-03-24T17:43:01.793Z,13.13
2023-03-24T17:44:41.577Z,13.12
2023-03-24T17:46:21.270Z,13.12
2023-03-24T17:48:01.019Z,13.12
2023-03-24T17:49:40.797Z,13.1
2023-03-24T17:51:20.562Z,13.1
2023-03-24T17:53:00.335Z,13.1
2023-03-24T17:54:40.098Z,13.1
2023-03-24T17:56:19.852Z,13.1
2023-03-24T17:57:59.604Z,13.1
2023-03-24T17:59:39.385Z,13.1
2023-03-24T18:01:19.133Z,13.1
2023-03-24T18:02:58.932Z,13.09
2023-03-24T18:04:38.681Z,13.1
2023-03-24T18:06:18.449Z,13.09
2023-03-24T18:07:58.303Z,13.09
2023-03-24T18:09:37.956Z,13.09
2023-03-24T18:11:17.725Z,13.07
2023-03-24T18:12:57.480Z,13.09
2023-03-24T18:14:37.293Z,13.07
2023-03-24T18:16:17.009Z,13.09
2023-03-24T18:17:56.781Z,13.08
2023-03-24T18:19:36.600Z,13.08
2023-03-24T18:21:16.372Z,13.08
2023-03-24T18:22:56.066Z,13.08
2023-03-24T18:24:35.840Z,13.08
2023-03-24T18:26:15.648Z,13.08
2023-03-24T18:27:55.350Z,13.06
2023-03-24T18:29:35.122Z,13.08
2023-03-24T18:31:15.063Z,13.06
2023-03-24T18:32:54.758Z,13.06
2023-03-24T18:34:34.431Z,13.06
2023-03-24T18:36:14.186Z,13.06
2023-03-24T18:37:53.948Z,13.06
2023-03-24T18:39:33.716Z,13.06
2023-03-24T18:41:13.493Z,13.06
2023-03-24T18:42:53.237Z,13.06
2023-03-24T18:44:32.998Z,13.06
2023-03-24T18:46:12.860Z,13.06
2023-03-24T18:47:52.571Z,13.06
2023-03-24T18:49:32.311Z,13.06
2023-03-24T18:51:12.076Z,13.06
2023-03-24T18:52:51.848Z,13.06
2023-03-24T18:54:31.588Z,13.06
2023-03-24T18:56:11.343Z,13.06
2023-03-24T18:57:51.104Z,13.06
2023-03-24T18:59:30.894Z,13.06
2023-03-24T19:01:10.640Z,13.06
2023-03-24T19:02:50.418Z,13.06
2023-03-24T19:04:30.176Z,13.06
2023-03-24T19:06:09.931Z,13.06
2023-03-24T19:07:49.763Z,13.06
2023-03-24T19:09:29.472Z,13.05
2023-03-24T19:11:09.235Z,13.05
2023-03-24T19:12:49.016Z,13.05
2023-03-24T19:14:28.761Z,13.05
2023-03-24T19:16:08.535Z,13.05
2023-03-24T19:17:48.279Z,13.05
2023-03-24T19:19:28.053Z,13.05
2023-03-24T19:21:07.821Z,13.05
2023-03-24T19:22:47.573Z,13.05
2023-03-24T19:24:27.335Z,13.05
2023-03-24T19:26:07.128Z,13.05
2023-03-24T19:27:46.864Z,13.05
2023-03-24T19:29:26.639Z,13.05
2023-03-24T19:31:06.408Z,13.04
2023-03-24T19:32:46.234Z,13.03
2023-03-24T19:34:25.950Z,13.04
2023-03-24T19:36:05.709Z,13.04
2023-03-24T19:37:45.450Z,13.04
2023-03-24T19:39:25.213Z,13.04
2023-03-24T19:41:04.983Z,13.03
2023-03-24T19:42:44.766Z,13.04
2023-03-24T19:44:24.510Z,13.04
2023-03-24T19:46:04.272Z,13.04
2023-03-24T19:47:44.038Z,13.04
2023-03-24T19:49:23.798Z,13.04
2023-03-24T19:51:03.562Z,13.04
2023-03-24T19:52:43.383Z,13.04
2023-03-24T19:54:23.099Z,13.04
2023-03-24T19:56:02.860Z,13.04
2023-03-24T19:57:42.622Z,13.04
2023-03-24T19:59:22.382Z,13.04
2023-03-24T20:01:02.142Z,13.04
2023-03-24T20:02:41.915Z,13.02
2023-03-24T20:04:21.669Z,13.04
2023-03-24T20:06:01.438Z,13.04
2023-03-24T20:07:41.270Z,13.03
2023-03-24T20:09:20.995Z,13.03
2023-03-24T20:11:00.735Z,13.03
2023-03-24T20:12:40.504Z,13.03
2023-03-24T20:14:20.263Z,13.03
2023-03-24T20:16:00.031Z,13.03
2023-03-24T20:17:39.786Z,13.03
2023-03-24T20:19:19.551Z,13.03
2023-03-24T20:20:59.341Z,13.03
2023-03-24T20:22:39.079Z,13.03
2023-03-24T20:24:18.831Z,13.04
2023-03-24T20:25:58.608Z,13.03
2023-03-24T20:27:38.361Z,13.03
2023-03-24T20:29:18.134Z,13.03
2023-03-24T20:30:57.890Z,13.01
2023-03-24T20:32:37.668Z,13.03
2023-03-24T20:34:17.432Z,13.03
2023-03-24T20:35:57.199Z,13.03
2023-03-24T20:37:36.954Z,13.01
2023-03-24T20:39:16.721Z,13.03
2023-03-24T20:40:56.478Z,13.01
2023-03-24T20:42:36.256Z,13.02
2023-03-24T20:44:16.019Z,13.01
2023-03-24T20:45:55.756Z,13.02
2023-03-24T20:47:35.537Z,13.02
2023-03-24T20:49:15.323Z,13
2023-03-24T20:50:55.069Z,13
2023-03-24T20:52:34.829Z,13.01
2023-03-24T20:54:14.617Z,13.01
2023-03-24T20:55:54.405Z,13.02
2023-03-24T20:57:34.104Z,13.01
2023-03-24T20:59:13.875Z,13.01
2023-03-24T21:00:53.652Z,13.01
2023-03-24T21:02:33.407Z,13.01
2023-03-24T21:04:13.190Z,13.01
2023-03-24T21:05:52.933Z,13.01
2023-03-24T21:07:32.700Z,13.01
2023-03-24T21:09:12.481Z,13.01
2023-03-24T21:10:52.212Z,13.01
2023-03-24T21:12:32.011Z,13.01
2023-03-24T21:14:11.745Z,13.01
2023-03-24T21:15:51.515Z,13.01
2023-03-24T21:17:31.264Z,13.01
2023-03-24T21:19:11.075Z,13.01
2023-03-24T21:20:50.820Z,13.01
2023-03-24T21:22:30.580Z,13.01
2023-03-24T21:24:10.446Z,13.01
2023-03-24T21:25:50.106Z,13.01
2023-03-24T21:27:29.854Z,13.01
2023-03-24T21:29:09.618Z,13
2023-03-24T21:30:49.400Z,13
2023-03-24T21:32:29.192Z,13
2023-03-24T21:34:08.914Z,13